sensor_id;sensor_type;location;lat;lon;timestamp;P1;durP1;ratioP1;P2;durP2;ratioP2
76953;SDS011;65893;51.698;-0.292;2023-08-30T00:02:05;7.07;;;3.10;;
76953;SDS011;65893;51.698;-0.292;2023-08-30T00:04:34;7.10;;;3.03;;
76953;SDS011;65893;51.698;-0.292;2023-08-30T00:07:01;9.20;;;3.22;;
76953;SDS011;65893;51.698;-0.292;2023-08-30T00:09:27;8.73;;;3.05;;
76953;SDS011;65893;51.698;-0.292;2023-08-30T00:11:53;6.45;;;3.22;;
76953;SDS011;65893;51.698;-0.292;2023-08-30T00:14:19;10.15;;;3.90;;
76953;SDS011;65893;51.698;-0.292;2023-08-30T00:16:45;11.85;;;3.00;;
76953;SDS011;65893;51.698;-0.292;2023-08-30T00:19:11;8.95;;;3.08;;
76953;SDS011;65893;51.698;-0.292;2023-08-30T00:21:37;7.07;;;3.78;;
76953;SDS011;65893;51.698;-0.292;2023-08-30T00:24:03;9.18;;;2.83;;
76953;SDS011;65893;51.698;-0.292;2023-08-30T00:26:30;7.13;;;2.88;;
76953;SDS011;65893;51.698;-0.292;2023-08-30T00:28:57;13.25;;;3.08;;
76953;SDS011;65893;51.698;-0.292;2023-08-30T00:31:23;12.25;;;3.55;;
76953;SDS011;65893;51.698;-0.292;2023-08-30T00:33:49;11.88;;;3.55;;
76953;SDS011;65893;51.698;-0.292;2023-08-30T00:36:15;9.30;;;3.28;;
76953;SDS011;65893;51.698;-0.292;2023-08-30T00:38:45;8.52;;;2.90;;
76953;SDS011;65893;51.698;-0.292;2023-08-30T00:41:12;8.93;;;2.75;;
76953;SDS011;65893;51.698;-0.292;2023-08-30T00:43:38;7.45;;;3.00;;
76953;SDS011;65893;51.698;-0.292;2023-08-30T00:46:04;12.27;;;3.47;;
76953;SDS011;65893;51.698;-0.292;2023-08-30T00:48:30;8.57;;;3.70;;
76953;SDS011;65893;51.698;-0.292;2023-08-30T00:50:57;7.97;;;3.38;;
76953;SDS011;65893;51.698;-0.292;2023-08-30T00:53:24;10.52;;;3.22;;
76953;SDS011;65893;51.698;-0.292;2023-08-30T00:55:50;8.38;;;3.40;;
76953;SDS011;65893;51.698;-0.292;2023-08-30T00:58:16;8.68;;;3.88;;
76953;SDS011;65893;51.698;-0.292;2023-08-30T01:00:42;10.95;;;4.13;;
76953;SDS011;65893;51.698;-0.292;2023-08-30T01:03:08;9.75;;;3.83;;
76953;SDS011;65893;51.698;-0.292;2023-08-30T01:05:34;10.02;;;4.25;;
76953;SDS011;65893;51.698;-0.292;2023-08-30T01:08:00;11.73;;;3.65;;
76953;SDS011;65893;51.698;-0.292;2023-08-30T01:11:10;8.75;;;3.85;;
76953;SDS011;65893;51.698;-0.292;2023-08-30T01:13:18;13.38;;;5.03;;
76953;SDS011;65893;51.698;-0.292;2023-08-30T01:15:48;15.13;;;4.80;;
76953;SDS011;65893;51.698;-0.292;2023-08-30T01:18:15;13.38;;;5.40;;
76953;SDS011;65893;51.698;-0.292;2023-08-30T01:20:42;13.20;;;4.88;;
76953;SDS011;65893;51.698;-0.292;2023-08-30T01:28:21;8.68;;;3.47;;
76953;SDS011;65893;51.698;-0.292;2023-08-30T01:30:47;9.68;;;4.30;;
76953;SDS011;65893;51.698;-0.292;2023-08-30T01:33:14;8.55;;;4.38;;
76953;SDS011;65893;51.698;-0.292;2023-08-30T01:35:42;17.88;;;4.05;;
76953;SDS011;65893;51.698;-0.292;2023-08-30T01:38:08;9.90;;;4.65;;
76953;SDS011;65893;51.698;-0.292;2023-08-30T01:40:35;10.50;;;3.63;;
76953;SDS011;65893;51.698;-0.292;2023-08-30T01:43:02;15.18;;;4.55;;
76953;SDS011;65893;51.698;-0.292;2023-08-30T01:45:30;14.25;;;4.70;;
76953;SDS011;65893;51.698;-0.292;2023-08-30T01:47:58;10.88;;;4.15;;
76953;SDS011;65893;51.698;-0.292;2023-08-30T01:50:24;9.40;;;3.28;;
76953;SDS011;65893;51.698;-0.292;2023-08-30T01:52:51;14.15;;;4.57;;
76953;SDS011;65893;51.698;-0.292;2023-08-30T01:55:18;8.10;;;3.63;;
76953;SDS011;65893;51.698;-0.292;2023-08-30T01:57:46;10.57;;;4.03;;
76953;SDS011;65893;51.698;-0.292;2023-08-30T02:00:12;13.95;;;4.20;;
76953;SDS011;65893;51.698;-0.292;2023-08-30T02:02:38;10.80;;;3.13;;
76953;SDS011;65893;51.698;-0.292;2023-08-30T02:05:05;11.10;;;3.05;;
76953;SDS011;65893;51.698;-0.292;2023-08-30T02:07:40;11.40;;;3.63;;
76953;SDS011;65893;51.698;-0.292;2023-08-30T02:10:09;12.40;;;3.20;;
76953;SDS011;65893;51.698;-0.292;2023-08-30T02:12:40;12.95;;;3.28;;
76953;SDS011;65893;51.698;-0.292;2023-08-30T02:15:07;6.70;;;3.05;;
76953;SDS011;65893;51.698;-0.292;2023-08-30T02:17:35;12.48;;;3.15;;
76953;SDS011;65893;51.698;-0.292;2023-08-30T02:20:03;10.85;;;3.28;;
76953;SDS011;65893;51.698;-0.292;2023-08-30T02:22:30;14.02;;;3.75;;
76953;SDS011;65893;51.698;-0.292;2023-08-30T02:24:56;10.35;;;3.40;;
76953;SDS011;65893;51.698;-0.292;2023-08-30T02:27:23;9.45;;;3.13;;
76953;SDS011;65893;51.698;-0.292;2023-08-30T02:29:49;6.88;;;3.03;;
76953;SDS011;65893;51.698;-0.292;2023-08-30T02:32:15;17.27;;;3.53;;
76953;SDS011;65893;51.698;-0.292;2023-08-30T02:34:45;11.18;;;2.92;;
76953;SDS011;65893;51.698;-0.292;2023-08-30T02:37:11;11.55;;;2.90;;
76953;SDS011;65893;51.698;-0.292;2023-08-30T02:39:37;12.18;;;3.00;;
76953;SDS011;65893;51.698;-0.292;2023-08-30T02:42:03;8.25;;;2.30;;
76953;SDS011;65893;51.698;-0.292;2023-08-30T02:44:29;10.32;;;2.97;;
76953;SDS011;65893;51.698;-0.292;2023-08-30T02:46:55;14.38;;;2.83;;
76953;SDS011;65893;51.698;-0.292;2023-08-30T02:49:21;5.35;;;1.63;;
76953;SDS011;65893;51.698;-0.292;2023-08-30T02:51:47;11.60;;;2.78;;
76953;SDS011;65893;51.698;-0.292;2023-08-30T02:54:15;12.63;;;2.47;;
76953;SDS011;65893;51.698;-0.292;2023-08-30T02:56:41;12.25;;;2.47;;
76953;SDS011;65893;51.698;-0.292;2023-08-30T02:59:08;9.98;;;2.72;;
76953;SDS011;65893;51.698;-0.292;2023-08-30T03:01:34;8.40;;;2.25;;
76953;SDS011;65893;51.698;-0.292;2023-08-30T03:04:01;10.27;;;2.40;;
76953;SDS011;65893;51.698;-0.292;2023-08-30T03:06:27;10.30;;;2.72;;
76953;SDS011;65893;51.698;-0.292;2023-08-30T03:08:53;14.95;;;2.80;;
76953;SDS011;65893;51.698;-0.292;2023-08-30T03:11:19;13.07;;;3.63;;
76953;SDS011;65893;51.698;-0.292;2023-08-30T03:13:45;7.38;;;2.25;;
76953;SDS011;65893;51.698;-0.292;2023-08-30T03:16:15;11.68;;;2.40;;
76953;SDS011;65893;51.698;-0.292;2023-08-30T03:18:41;23.77;;;3.22;;
76953;SDS011;65893;51.698;-0.292;2023-08-30T03:21:08;9.23;;;2.17;;
76953;SDS011;65893;51.698;-0.292;2023-08-30T03:23:34;8.15;;;2.20;;
76953;SDS011;65893;51.698;-0.292;2023-08-30T03:26:13;8.93;;;2.50;;
76953;SDS011;65893;51.698;-0.292;2023-08-30T03:28:41;8.85;;;2.88;;
76953;SDS011;65893;51.698;-0.292;2023-08-30T03:31:26;9.57;;;2.63;;
76953;SDS011;65893;51.698;-0.292;2023-08-30T03:33:52;11.40;;;2.70;;
76953;SDS011;65893;51.698;-0.292;2023-08-30T03:36:18;12.52;;;2.28;;
76953;SDS011;65893;51.698;-0.292;2023-08-30T03:38:45;11.52;;;2.30;;
76953;SDS011;65893;51.698;-0.292;2023-08-30T03:41:12;8.85;;;3.38;;
76953;SDS011;65893;51.698;-0.292;2023-08-30T03:43:39;6.60;;;2.35;;
76953;SDS011;65893;51.698;-0.292;2023-08-30T03:46:05;9.30;;;2.25;;
76953;SDS011;65893;51.698;-0.292;2023-08-30T03:48:31;11.02;;;2.72;;
76953;SDS011;65893;51.698;-0.292;2023-08-30T03:50:57;7.13;;;2.15;;
76953;SDS011;65893;51.698;-0.292;2023-08-30T03:53:23;7.38;;;2.28;;
76953;SDS011;65893;51.698;-0.292;2023-08-30T03:55:50;9.43;;;2.42;;
76953;SDS011;65893;51.698;-0.292;2023-08-30T03:58:17;9.57;;;2.45;;
76953;SDS011;65893;51.698;-0.292;2023-08-30T04:00:43;9.05;;;2.72;;
76953;SDS011;65893;51.698;-0.292;2023-08-30T04:03:10;8.50;;;2.47;;
76953;SDS011;65893;51.698;-0.292;2023-08-30T04:05:36;7.45;;;1.83;;
76953;SDS011;65893;51.698;-0.292;2023-08-30T04:08:06;7.00;;;2.40;;
76953;SDS011;65893;51.698;-0.292;2023-08-30T04:10:39;8.98;;;2.70;;
76953;SDS011;65893;51.698;-0.292;2023-08-30T04:13:05;9.13;;;2.28;;
76953;SDS011;65893;51.698;-0.292;2023-08-30T04:15:32;8.68;;;2.35;;
76953;SDS011;65893;51.698;-0.292;2023-08-30T04:17:59;12.20;;;2.40;;
76953;SDS011;65893;51.698;-0.292;2023-08-30T04:20:25;7.03;;;2.17;;
76953;SDS011;65893;51.698;-0.292;2023-08-30T04:22:51;7.75;;;2.25;;
76953;SDS011;65893;51.698;-0.292;2023-08-30T04:25:20;8.77;;;2.10;;
76953;SDS011;65893;51.698;-0.292;2023-08-30T04:27:46;7.88;;;2.17;;
76953;SDS011;65893;51.698;-0.292;2023-08-30T04:30:12;7.07;;;2.92;;
76953;SDS011;65893;51.698;-0.292;2023-08-30T04:32:38;9.68;;;2.53;;
76953;SDS011;65893;51.698;-0.292;2023-08-30T04:35:05;8.30;;;1.83;;
76953;SDS011;65893;51.698;-0.292;2023-08-30T04:37:31;9.98;;;2.75;;
76953;SDS011;65893;51.698;-0.292;2023-08-30T04:39:57;11.40;;;2.13;;
76953;SDS011;65893;51.698;-0.292;2023-08-30T04:42:23;8.88;;;1.98;;
76953;SDS011;65893;51.698;-0.292;2023-08-30T04:44:50;8.80;;;2.45;;
76953;SDS011;65893;51.698;-0.292;2023-08-30T04:47:16;9.45;;;2.20;;
76953;SDS011;65893;51.698;-0.292;2023-08-30T04:49:43;8.45;;;2.45;;
76953;SDS011;65893;51.698;-0.292;2023-08-30T04:52:09;10.80;;;2.22;;
76953;SDS011;65893;51.698;-0.292;2023-08-30T04:54:35;9.70;;;2.55;;
76953;SDS011;65893;51.698;-0.292;2023-08-30T04:57:01;6.72;;;2.60;;
76953;SDS011;65893;51.698;-0.292;2023-08-30T04:59:27;7.65;;;2.20;;
76953;SDS011;65893;51.698;-0.292;2023-08-30T05:01:53;6.93;;;2.10;;
76953;SDS011;65893;51.698;-0.292;2023-08-30T05:04:20;12.05;;;2.22;;
76953;SDS011;65893;51.698;-0.292;2023-08-30T05:06:46;10.05;;;2.45;;
76953;SDS011;65893;51.698;-0.292;2023-08-30T05:09:12;6.47;;;1.90;;
76953;SDS011;65893;51.698;-0.292;2023-08-30T05:11:38;8.90;;;2.70;;
76953;SDS011;65893;51.698;-0.292;2023-08-30T05:14:04;9.98;;;2.38;;
76953;SDS011;65893;51.698;-0.292;2023-08-30T05:16:30;8.43;;;2.03;;
76953;SDS011;65893;51.698;-0.292;2023-08-30T05:18:56;10.77;;;2.00;;
76953;SDS011;65893;51.698;-0.292;2023-08-30T05:21:22;8.18;;;1.92;;
76953;SDS011;65893;51.698;-0.292;2023-08-30T05:23:48;11.73;;;2.65;;
76953;SDS011;65893;51.698;-0.292;2023-08-30T05:26:14;6.93;;;2.17;;
76953;SDS011;65893;51.698;-0.292;2023-08-30T05:28:44;9.15;;;1.95;;
76953;SDS011;65893;51.698;-0.292;2023-08-30T05:31:11;4.97;;;1.65;;
76953;SDS011;65893;51.698;-0.292;2023-08-30T05:33:37;7.82;;;1.60;;
76953;SDS011;65893;51.698;-0.292;2023-08-30T05:36:03;6.50;;;1.77;;
76953;SDS011;65893;51.698;-0.292;2023-08-30T05:38:29;13.40;;;2.30;;
76953;SDS011;65893;51.698;-0.292;2023-08-30T05:40:55;7.30;;;1.75;;
76953;SDS011;65893;51.698;-0.292;2023-08-30T05:43:21;10.23;;;2.10;;
76953;SDS011;65893;51.698;-0.292;2023-08-30T05:45:47;7.50;;;1.85;;
76953;SDS011;65893;51.698;-0.292;2023-08-30T05:48:13;6.70;;;1.92;;
76953;SDS011;65893;51.698;-0.292;2023-08-30T05:50:39;10.88;;;2.00;;
76953;SDS011;65893;51.698;-0.292;2023-08-30T05:53:05;7.53;;;2.50;;
76953;SDS011;65893;51.698;-0.292;2023-08-30T05:55:31;14.38;;;2.97;;
76953;SDS011;65893;51.698;-0.292;2023-08-30T05:57:59;9.25;;;2.13;;
76953;SDS011;65893;51.698;-0.292;2023-08-30T06:00:27;7.70;;;1.75;;
76953;SDS011;65893;51.698;-0.292;2023-08-30T06:02:55;9.38;;;2.25;;
76953;SDS011;65893;51.698;-0.292;2023-08-30T06:05:21;8.30;;;2.08;;
76953;SDS011;65893;51.698;-0.292;2023-08-30T06:07:47;7.15;;;2.00;;
76953;SDS011;65893;51.698;-0.292;2023-08-30T06:10:13;7.75;;;1.65;;
76953;SDS011;65893;51.698;-0.292;2023-08-30T06:12:39;6.93;;;1.55;;
76953;SDS011;65893;51.698;-0.292;2023-08-30T06:15:05;5.97;;;1.73;;
76953;SDS011;65893;51.698;-0.292;2023-08-30T06:17:33;13.77;;;2.38;;
76953;SDS011;65893;51.698;-0.292;2023-08-30T06:20:01;9.57;;;1.83;;
76953;SDS011;65893;51.698;-0.292;2023-08-30T06:22:28;10.35;;;1.88;;
76953;SDS011;65893;51.698;-0.292;2023-08-30T06:24:54;11.32;;;2.35;;
76953;SDS011;65893;51.698;-0.292;2023-08-30T06:27:20;16.08;;;2.30;;
76953;SDS011;65893;51.698;-0.292;2023-08-30T06:29:46;12.38;;;2.22;;
76953;SDS011;65893;51.698;-0.292;2023-08-30T06:32:12;7.88;;;1.73;;
76953;SDS011;65893;51.698;-0.292;2023-08-30T06:34:38;4.60;;;1.70;;
76953;SDS011;65893;51.698;-0.292;2023-08-30T06:37:04;9.65;;;1.92;;
76953;SDS011;65893;51.698;-0.292;2023-08-30T06:39:34;11.55;;;2.65;;
76953;SDS011;65893;51.698;-0.292;2023-08-30T06:42:01;9.95;;;2.97;;
76953;SDS011;65893;51.698;-0.292;2023-08-30T06:44:30;9.60;;;1.73;;
76953;SDS011;65893;51.698;-0.292;2023-08-30T06:46:56;8.20;;;1.83;;
76953;SDS011;65893;51.698;-0.292;2023-08-30T06:49:23;7.30;;;1.63;;
76953;SDS011;65893;51.698;-0.292;2023-08-30T06:51:49;8.77;;;2.17;;
76953;SDS011;65893;51.698;-0.292;2023-08-30T06:54:15;5.78;;;2.03;;
76953;SDS011;65893;51.698;-0.292;2023-08-30T06:56:41;7.15;;;2.55;;
76953;SDS011;65893;51.698;-0.292;2023-08-30T06:59:07;13.82;;;2.17;;
76953;SDS011;65893;51.698;-0.292;2023-08-30T07:01:33;7.75;;;1.80;;
76953;SDS011;65893;51.698;-0.292;2023-08-30T07:04:01;8.20;;;1.73;;
76953;SDS011;65893;51.698;-0.292;2023-08-30T07:06:29;10.38;;;2.13;;
76953;SDS011;65893;51.698;-0.292;2023-08-30T07:08:56;7.68;;;1.70;;
76953;SDS011;65893;51.698;-0.292;2023-08-30T07:11:22;6.50;;;2.17;;
76953;SDS011;65893;51.698;-0.292;2023-08-30T07:13:48;10.63;;;2.40;;
76953;SDS011;65893;51.698;-0.292;2023-08-30T07:16:17;11.10;;;2.10;;
76953;SDS011;65893;51.698;-0.292;2023-08-30T07:18:44;11.57;;;1.95;;
76953;SDS011;65893;51.698;-0.292;2023-08-30T07:21:12;10.90;;;2.10;;
76953;SDS011;65893;51.698;-0.292;2023-08-30T07:26:34;6.72;;;2.00;;
76953;SDS011;65893;51.698;-0.292;2023-08-30T07:31:43;9.27;;;2.25;;
76953;SDS011;65893;51.698;-0.292;2023-08-30T07:34:20;9.13;;;2.63;;
76953;SDS011;65893;51.698;-0.292;2023-08-30T08:01:55;9.77;;;2.10;;
76953;SDS011;65893;51.698;-0.292;2023-08-30T09:01:54;8.48;;;1.65;;
76953;SDS011;65893;51.698;-0.292;2023-08-30T09:05:29;9.82;;;2.42;;
76953;SDS011;65893;51.698;-0.292;2023-08-30T09:08:04;4.80;;;1.42;;
76953;SDS011;65893;51.698;-0.292;2023-08-30T09:10:35;7.22;;;1.38;;
76953;SDS011;65893;51.698;-0.292;2023-08-30T09:13:25;5.28;;;1.30;;
76953;SDS011;65893;51.698;-0.292;2023-08-30T09:15:53;6.50;;;1.35;;
76953;SDS011;65893;51.698;-0.292;2023-08-30T09:21:11;5.28;;;1.02;;
76953;SDS011;65893;51.698;-0.292;2023-08-30T09:23:42;2.85;;;1.10;;
76953;SDS011;65893;51.698;-0.292;2023-08-30T09:26:12;8.13;;;2.03;;
76953;SDS011;65893;51.698;-0.292;2023-08-30T09:28:42;5.10;;;1.40;;
76953;SDS011;65893;51.698;-0.292;2023-08-30T09:31:16;4.85;;;1.30;;
76953;SDS011;65893;51.698;-0.292;2023-08-30T09:33:44;4.47;;;1.05;;
76953;SDS011;65893;51.698;-0.292;2023-08-30T09:36:12;4.53;;;1.00;;
76953;SDS011;65893;51.698;-0.292;2023-08-30T09:38:47;4.63;;;1.58;;
76953;SDS011;65893;51.698;-0.292;2023-08-30T09:41:17;10.48;;;2.15;;
76953;SDS011;65893;51.698;-0.292;2023-08-30T09:43:43;6.70;;;1.20;;
76953;SDS011;65893;51.698;-0.292;2023-08-30T09:46:09;6.03;;;1.15;;
76953;SDS011;65893;51.698;-0.292;2023-08-30T09:48:37;8.38;;;1.58;;
76953;SDS011;65893;51.698;-0.292;2023-08-30T09:51:03;3.40;;;1.10;;
76953;SDS011;65893;51.698;-0.292;2023-08-30T09:53:42;6.88;;;2.00;;
76953;SDS011;65893;51.698;-0.292;2023-08-30T09:56:11;3.97;;;1.42;;
76953;SDS011;65893;51.698;-0.292;2023-08-30T09:58:45;5.68;;;1.48;;
76953;SDS011;65893;51.698;-0.292;2023-08-30T10:01:11;4.35;;;1.10;;
76953;SDS011;65893;51.698;-0.292;2023-08-30T10:03:41;5.78;;;1.67;;
76953;SDS011;65893;51.698;-0.292;2023-08-30T10:06:07;3.40;;;1.00;;
76953;SDS011;65893;51.698;-0.292;2023-08-30T10:08:34;8.40;;;1.83;;
76953;SDS011;65893;51.698;-0.292;2023-08-30T10:14:08;7.60;;;1.98;;
76953;SDS011;65893;51.698;-0.292;2023-08-30T10:16:41;5.00;;;1.75;;
76953;SDS011;65893;51.698;-0.292;2023-08-30T10:19:14;2.97;;;1.05;;
76953;SDS011;65893;51.698;-0.292;2023-08-30T10:21:43;8.52;;;1.25;;
76953;SDS011;65893;51.698;-0.292;2023-08-30T10:24:11;2.08;;;1.02;;
76953;SDS011;65893;51.698;-0.292;2023-08-30T10:26:40;4.22;;;0.80;;
76953;SDS011;65893;51.698;-0.292;2023-08-30T10:29:08;4.93;;;1.15;;
76953;SDS011;65893;51.698;-0.292;2023-08-30T10:31:37;7.88;;;1.10;;
76953;SDS011;65893;51.698;-0.292;2023-08-30T10:36:34;6.30;;;1.42;;
76953;SDS011;65893;51.698;-0.292;2023-08-30T10:39:10;3.63;;;1.05;;
76953;SDS011;65893;51.698;-0.292;2023-08-30T10:41:36;2.05;;;0.60;;
76953;SDS011;65893;51.698;-0.292;2023-08-30T10:44:03;3.25;;;0.85;;
76953;SDS011;65893;51.698;-0.292;2023-08-30T10:46:32;2.83;;;0.80;;
76953;SDS011;65893;51.698;-0.292;2023-08-30T10:49:08;4.03;;;1.17;;
76953;SDS011;65893;51.698;-0.292;2023-08-30T10:51:37;3.40;;;0.93;;
76953;SDS011;65893;51.698;-0.292;2023-08-30T10:54:12;2.63;;;0.70;;
76953;SDS011;65893;51.698;-0.292;2023-08-30T10:56:47;2.08;;;0.63;;
76953;SDS011;65893;51.698;-0.292;2023-08-30T10:59:21;5.43;;;1.23;;
76953;SDS011;65893;51.698;-0.292;2023-08-30T11:01:50;1.83;;;0.80;;
76953;SDS011;65893;51.698;-0.292;2023-08-30T11:04:24;2.53;;;0.70;;
76953;SDS011;65893;51.698;-0.292;2023-08-30T11:06:50;4.57;;;0.80;;
76953;SDS011;65893;51.698;-0.292;2023-08-30T11:09:21;3.25;;;0.80;;
76953;SDS011;65893;51.698;-0.292;2023-08-30T11:11:49;4.25;;;0.73;;
76953;SDS011;65893;51.698;-0.292;2023-08-30T11:19:57;3.10;;;0.70;;
76953;SDS011;65893;51.698;-0.292;2023-08-30T11:22:27;3.03;;;1.00;;
76953;SDS011;65893;51.698;-0.292;2023-08-30T11:24:54;1.70;;;0.68;;
76953;SDS011;65893;51.698;-0.292;2023-08-30T11:27:23;2.75;;;1.00;;
76953;SDS011;65893;51.698;-0.292;2023-08-30T11:29:50;3.92;;;1.17;;
76953;SDS011;65893;51.698;-0.292;2023-08-30T11:32:16;3.03;;;0.55;;
76953;SDS011;65893;51.698;-0.292;2023-08-30T11:34:43;2.72;;;0.90;;
76953;SDS011;65893;51.698;-0.292;2023-08-30T11:37:10;9.07;;;1.20;;
76953;SDS011;65893;51.698;-0.292;2023-08-30T11:39:36;7.10;;;1.85;;
76953;SDS011;65893;51.698;-0.292;2023-08-30T11:42:04;7.78;;;1.08;;
76953;SDS011;65893;51.698;-0.292;2023-08-30T11:44:31;2.92;;;0.90;;
76953;SDS011;65893;51.698;-0.292;2023-08-30T11:46:58;2.35;;;1.00;;
76953;SDS011;65893;51.698;-0.292;2023-08-30T11:49:25;1.70;;;0.65;;
76953;SDS011;65893;51.698;-0.292;2023-08-30T11:51:52;3.20;;;1.20;;
76953;SDS011;65893;51.698;-0.292;2023-08-30T11:54:21;4.22;;;1.27;;
76953;SDS011;65893;51.698;-0.292;2023-08-30T11:56:47;4.45;;;1.10;;
76953;SDS011;65893;51.698;-0.292;2023-08-30T11:59:20;3.78;;;0.82;;
76953;SDS011;65893;51.698;-0.292;2023-08-30T12:01:47;5.63;;;0.90;;
76953;SDS011;65893;51.698;-0.292;2023-08-30T12:04:13;5.75;;;0.90;;
76953;SDS011;65893;51.698;-0.292;2023-08-30T12:06:40;3.70;;;1.25;;
76953;SDS011;65893;51.698;-0.292;2023-08-30T12:09:11;3.25;;;1.05;;
76953;SDS011;65893;51.698;-0.292;2023-08-30T12:11:37;2.88;;;0.75;;
76953;SDS011;65893;51.698;-0.292;2023-08-30T12:14:04;2.50;;;0.90;;
76953;SDS011;65893;51.698;-0.292;2023-08-30T12:16:30;6.70;;;1.10;;
76953;SDS011;65893;51.698;-0.292;2023-08-30T12:19:06;4.03;;;0.90;;
76953;SDS011;65893;51.698;-0.292;2023-08-30T12:21:38;4.65;;;0.90;;
76953;SDS011;65893;51.698;-0.292;2023-08-30T12:24:05;2.65;;;0.70;;
76953;SDS011;65893;51.698;-0.292;2023-08-30T12:26:31;5.60;;;1.45;;
76953;SDS011;65893;51.698;-0.292;2023-08-30T12:28:58;4.07;;;0.90;;
76953;SDS011;65893;51.698;-0.292;2023-08-30T12:31:24;6.85;;;0.95;;
76953;SDS011;65893;51.698;-0.292;2023-08-30T12:33:50;3.30;;;0.90;;
76953;SDS011;65893;51.698;-0.292;2023-08-30T12:36:16;2.58;;;0.73;;
76953;SDS011;65893;51.698;-0.292;2023-08-30T12:38:42;3.05;;;0.70;;
76953;SDS011;65893;51.698;-0.292;2023-08-30T12:41:08;2.08;;;0.75;;
76953;SDS011;65893;51.698;-0.292;2023-08-30T12:43:34;2.20;;;0.60;;
76953;SDS011;65893;51.698;-0.292;2023-08-30T12:46:00;3.65;;;0.93;;
76953;SDS011;65893;51.698;-0.292;2023-08-30T12:48:26;2.28;;;0.60;;
76953;SDS011;65893;51.698;-0.292;2023-08-30T12:50:52;3.40;;;0.93;;
76953;SDS011;65893;51.698;-0.292;2023-08-30T12:53:18;2.25;;;0.80;;
76953;SDS011;65893;51.698;-0.292;2023-08-30T12:55:45;5.15;;;1.17;;
76953;SDS011;65893;51.698;-0.292;2023-08-30T12:58:11;4.47;;;0.82;;
76953;SDS011;65893;51.698;-0.292;2023-08-30T13:00:38;4.20;;;1.00;;
76953;SDS011;65893;51.698;-0.292;2023-08-30T13:03:06;2.97;;;0.88;;
76953;SDS011;65893;51.698;-0.292;2023-08-30T13:05:33;2.15;;;0.85;;
76953;SDS011;65893;51.698;-0.292;2023-08-30T13:08:02;5.68;;;1.13;;
76953;SDS011;65893;51.698;-0.292;2023-08-30T13:10:28;3.35;;;0.85;;
76953;SDS011;65893;51.698;-0.292;2023-08-30T13:12:54;5.20;;;0.80;;
76953;SDS011;65893;51.698;-0.292;2023-08-30T13:15:22;2.38;;;0.93;;
76953;SDS011;65893;51.698;-0.292;2023-08-30T13:17:50;3.22;;;0.80;;
76953;SDS011;65893;51.698;-0.292;2023-08-30T13:20:18;2.08;;;0.65;;
76953;SDS011;65893;51.698;-0.292;2023-08-30T13:22:44;5.65;;;0.88;;
76953;SDS011;65893;51.698;-0.292;2023-08-30T13:25:11;3.15;;;0.75;;
76953;SDS011;65893;51.698;-0.292;2023-08-30T13:27:38;2.55;;;0.70;;
76953;SDS011;65893;51.698;-0.292;2023-08-30T13:30:17;3.33;;;1.38;;
76953;SDS011;65893;51.698;-0.292;2023-08-30T13:32:44;4.90;;;1.58;;
76953;SDS011;65893;51.698;-0.292;2023-08-30T13:35:18;5.20;;;1.00;;
76953;SDS011;65893;51.698;-0.292;2023-08-30T13:37:44;1.90;;;1.30;;
76953;SDS011;65893;51.698;-0.292;2023-08-30T13:40:10;3.00;;;0.73;;
76953;SDS011;65893;51.698;-0.292;2023-08-30T13:42:37;3.05;;;0.80;;
76953;SDS011;65893;51.698;-0.292;2023-08-30T13:45:03;3.45;;;1.13;;
76953;SDS011;65893;51.698;-0.292;2023-08-30T13:50:02;2.90;;;1.05;;
76953;SDS011;65893;51.698;-0.292;2023-08-30T13:52:30;4.43;;;1.10;;
76953;SDS011;65893;51.698;-0.292;2023-08-30T13:54:58;5.18;;;1.30;;
76953;SDS011;65893;51.698;-0.292;2023-08-30T13:57:25;2.33;;;0.90;;
76953;SDS011;65893;51.698;-0.292;2023-08-30T13:59:51;4.28;;;1.13;;
76953;SDS011;65893;51.698;-0.292;2023-08-30T14:02:17;5.43;;;1.20;;
76953;SDS011;65893;51.698;-0.292;2023-08-30T14:04:47;2.25;;;0.50;;
76953;SDS011;65893;51.698;-0.292;2023-08-30T14:07:14;3.58;;;1.13;;
76953;SDS011;65893;51.698;-0.292;2023-08-30T14:09:43;3.20;;;1.13;;
76953;SDS011;65893;51.698;-0.292;2023-08-30T14:12:09;2.47;;;0.90;;
76953;SDS011;65893;51.698;-0.292;2023-08-30T14:14:38;8.80;;;1.23;;
76953;SDS011;65893;51.698;-0.292;2023-08-30T14:17:04;1.92;;;0.63;;
76953;SDS011;65893;51.698;-0.292;2023-08-30T14:19:30;4.68;;;1.02;;
76953;SDS011;65893;51.698;-0.292;2023-08-30T14:21:59;3.85;;;1.10;;
76953;SDS011;65893;51.698;-0.292;2023-08-30T14:24:36;1.65;;;0.77;;
76953;SDS011;65893;51.698;-0.292;2023-08-30T14:29:39;2.63;;;0.77;;
76953;SDS011;65893;51.698;-0.292;2023-08-30T14:32:10;5.68;;;0.90;;
76953;SDS011;65893;51.698;-0.292;2023-08-30T14:34:45;3.95;;;0.73;;
76953;SDS011;65893;51.698;-0.292;2023-08-30T14:37:13;4.00;;;1.00;;
76953;SDS011;65893;51.698;-0.292;2023-08-30T14:39:39;6.07;;;1.30;;
76953;SDS011;65893;51.698;-0.292;2023-08-30T14:42:09;2.53;;;0.70;;
76953;SDS011;65893;51.698;-0.292;2023-08-30T14:47:33;4.07;;;1.00;;
76953;SDS011;65893;51.698;-0.292;2023-08-30T14:50:01;3.20;;;0.93;;
76953;SDS011;65893;51.698;-0.292;2023-08-30T15:05:29;4.50;;;0.90;;
76953;SDS011;65893;51.698;-0.292;2023-08-30T15:08:07;3.05;;;1.00;;
76953;SDS011;65893;51.698;-0.292;2023-08-30T15:10:54;2.65;;;0.60;;
76953;SDS011;65893;51.698;-0.292;2023-08-30T15:13:36;3.13;;;0.63;;
76953;SDS011;65893;51.698;-0.292;2023-08-30T15:31:39;5.22;;;0.80;;
76953;SDS011;65893;51.698;-0.292;2023-08-30T15:34:05;0.65;;;0.43;;
76953;SDS011;65893;51.698;-0.292;2023-08-30T15:36:31;4.65;;;0.70;;
76953;SDS011;65893;51.698;-0.292;2023-08-30T15:39:00;6.70;;;1.25;;
76953;SDS011;65893;51.698;-0.292;2023-08-30T15:41:33;3.17;;;1.13;;
76953;SDS011;65893;51.698;-0.292;2023-08-30T15:43:59;4.88;;;1.25;;
76953;SDS011;65893;51.698;-0.292;2023-08-30T15:46:30;4.10;;;1.02;;
76953;SDS011;65893;51.698;-0.292;2023-08-30T15:57:13;4.68;;;0.90;;
76953;SDS011;65893;51.698;-0.292;2023-08-30T15:59:39;4.47;;;0.80;;
76953;SDS011;65893;51.698;-0.292;2023-08-30T16:02:10;5.13;;;1.00;;
76953;SDS011;65893;51.698;-0.292;2023-08-30T16:05:01;1.83;;;0.82;;
76953;SDS011;65893;51.698;-0.292;2023-08-30T16:10:07;2.92;;;0.68;;
76953;SDS011;65893;51.698;-0.292;2023-08-30T16:12:34;3.67;;;0.82;;
76953;SDS011;65893;51.698;-0.292;2023-08-30T16:15:04;2.80;;;1.08;;
76953;SDS011;65893;51.698;-0.292;2023-08-30T16:17:41;4.53;;;1.17;;
76953;SDS011;65893;51.698;-0.292;2023-08-30T16:20:08;6.13;;;1.35;;
76953;SDS011;65893;51.698;-0.292;2023-08-30T16:22:37;2.25;;;0.65;;
76953;SDS011;65893;51.698;-0.292;2023-08-30T16:25:04;2.00;;;0.82;;
76953;SDS011;65893;51.698;-0.292;2023-08-30T16:27:31;3.40;;;0.90;;
76953;SDS011;65893;51.698;-0.292;2023-08-30T16:30:00;2.17;;;0.70;;
76953;SDS011;65893;51.698;-0.292;2023-08-30T16:32:31;5.78;;;0.77;;
76953;SDS011;65893;51.698;-0.292;2023-08-30T16:37:34;2.10;;;0.80;;
76953;SDS011;65893;51.698;-0.292;2023-08-30T16:40:14;3.25;;;0.70;;
76953;SDS011;65893;51.698;-0.292;2023-08-30T16:42:44;2.47;;;0.90;;
76953;SDS011;65893;51.698;-0.292;2023-08-30T16:45:16;2.17;;;0.60;;
76953;SDS011;65893;51.698;-0.292;2023-08-30T16:47:45;4.78;;;0.70;;
76953;SDS011;65893;51.698;-0.292;2023-08-30T16:50:18;1.77;;;0.80;;
76953;SDS011;65893;51.698;-0.292;2023-08-30T16:52:50;8.73;;;1.00;;
76953;SDS011;65893;51.698;-0.292;2023-08-30T16:55:16;2.22;;;0.57;;
76953;SDS011;65893;51.698;-0.292;2023-08-30T16:57:45;3.35;;;1.10;;
76953;SDS011;65893;51.698;-0.292;2023-08-30T17:00:12;6.43;;;1.17;;
76953;SDS011;65893;51.698;-0.292;2023-08-30T17:02:38;3.20;;;0.90;;
76953;SDS011;65893;51.698;-0.292;2023-08-30T17:07:38;7.85;;;1.20;;
76953;SDS011;65893;51.698;-0.292;2023-08-30T17:10:07;4.75;;;1.08;;
76953;SDS011;65893;51.698;-0.292;2023-08-30T17:12:35;3.95;;;0.90;;
76953;SDS011;65893;51.698;-0.292;2023-08-30T17:15:17;2.88;;;1.17;;
76953;SDS011;65893;51.698;-0.292;2023-08-30T17:17:46;4.28;;;1.05;;